sensor_id;sensor_type;location;lat;lon;timestamp;P1;durP1;ratioP1;P2;durP2;ratioP2
66521;SDS011;53349;53.538;8.584;2023-03-14T00:01:53;13.97;;;2.27;;
66521;SDS011;53349;53.538;8.584;2023-03-14T00:04:18;14.97;;;2.73;;
66521;SDS011;53349;53.538;8.584;2023-03-14T00:06:43;18.00;;;2.30;;
66521;SDS011;53349;53.538;8.584;2023-03-14T00:09:09;19.83;;;2.40;;
66521;SDS011;53349;53.538;8.584;2023-03-14T00:11:34;19.67;;;3.03;;
66521;SDS011;53349;53.538;8.584;2023-03-14T00:14:00;13.98;;;2.47;;
66521;SDS011;53349;53.538;8.584;2023-03-14T00:16:27;11.43;;;2.30;;
66521;SDS011;53349;53.538;8.584;2023-03-14T00:18:52;13.35;;;3.05;;
66521;SDS011;53349;53.538;8.584;2023-03-14T00:21:17;17.77;;;2.73;;
66521;SDS011;53349;53.538;8.584;2023-03-14T00:23:43;13.65;;;2.30;;
66521;SDS011;53349;53.538;8.584;2023-03-14T00:26:10;15.30;;;2.60;;
66521;SDS011;53349;53.538;8.584;2023-03-14T00:28:37;15.10;;;2.60;;
66521;SDS011;53349;53.538;8.584;2023-03-14T00:31:03;15.13;;;2.50;;
66521;SDS011;53349;53.538;8.584;2023-03-14T00:33:29;18.65;;;2.30;;
66521;SDS011;53349;53.538;8.584;2023-03-14T00:35:59;13.03;;;2.27;;
66521;SDS011;53349;53.538;8.584;2023-03-14T00:38:41;15.98;;;2.75;;
66521;SDS011;53349;53.538;8.584;2023-03-14T00:41:10;12.15;;;2.00;;
66521;SDS011;53349;53.538;8.584;2023-03-14T00:43:56;15.48;;;2.17;;
66521;SDS011;53349;53.538;8.584;2023-03-14T00:46:22;14.27;;;2.63;;
66521;SDS011;53349;53.538;8.584;2023-03-14T00:48:48;16.83;;;2.43;;
66521;SDS011;53349;53.538;8.584;2023-03-14T00:51:13;16.92;;;2.92;;
66521;SDS011;53349;53.538;8.584;2023-03-14T00:53:40;11.60;;;1.85;;
66521;SDS011;53349;53.538;8.584;2023-03-14T00:56:08;12.27;;;2.35;;
66521;SDS011;53349;53.538;8.584;2023-03-14T00:58:37;15.93;;;2.70;;
66521;SDS011;53349;53.538;8.584;2023-03-14T01:01:10;10.10;;;2.30;;
66521;SDS011;53349;53.538;8.584;2023-03-14T01:03:40;13.15;;;2.22;;
66521;SDS011;53349;53.538;8.584;2023-03-14T01:06:09;13.10;;;2.20;;
66521;SDS011;53349;53.538;8.584;2023-03-14T01:08:35;15.32;;;2.47;;
66521;SDS011;53349;53.538;8.584;2023-03-14T01:11:04;12.47;;;2.10;;
66521;SDS011;53349;53.538;8.584;2023-03-14T01:13:30;15.75;;;2.30;;
66521;SDS011;53349;53.538;8.584;2023-03-14T01:16:00;14.77;;;2.43;;
66521;SDS011;53349;53.538;8.584;2023-03-14T01:18:28;10.63;;;2.20;;
66521;SDS011;53349;53.538;8.584;2023-03-14T01:20:55;13.27;;;2.13;;
66521;SDS011;53349;53.538;8.584;2023-03-14T01:23:20;17.35;;;2.65;;
66521;SDS011;53349;53.538;8.584;2023-03-14T01:25:45;14.55;;;2.53;;
66521;SDS011;53349;53.538;8.584;2023-03-14T01:28:10;13.50;;;2.80;;
66521;SDS011;53349;53.538;8.584;2023-03-14T01:30:36;10.63;;;2.50;;
66521;SDS011;53349;53.538;8.584;2023-03-14T01:33:01;15.73;;;2.70;;
66521;SDS011;53349;53.538;8.584;2023-03-14T01:35:27;16.08;;;2.63;;
66521;SDS011;53349;53.538;8.584;2023-03-14T01:37:54;16.92;;;2.35;;
66521;SDS011;53349;53.538;8.584;2023-03-14T01:40:22;15.30;;;2.77;;
66521;SDS011;53349;53.538;8.584;2023-03-14T01:42:55;12.00;;;2.40;;
66521;SDS011;53349;53.538;8.584;2023-03-14T01:48:38;11.65;;;2.30;;
66521;SDS011;53349;53.538;8.584;2023-03-14T01:51:12;14.65;;;2.35;;
66521;SDS011;53349;53.538;8.584;2023-03-14T01:53:42;12.07;;;1.85;;
66521;SDS011;53349;53.538;8.584;2023-03-14T01:56:11;14.57;;;2.55;;
66521;SDS011;53349;53.538;8.584;2023-03-14T01:58:40;13.93;;;2.58;;
66521;SDS011;53349;53.538;8.584;2023-03-14T02:01:10;12.35;;;2.25;;
66521;SDS011;53349;53.538;8.584;2023-03-14T02:03:38;14.68;;;2.47;;
66521;SDS011;53349;53.538;8.584;2023-03-14T02:06:12;10.27;;;2.45;;
66521;SDS011;53349;53.538;8.584;2023-03-14T02:08:42;13.60;;;2.83;;
66521;SDS011;53349;53.538;8.584;2023-03-14T02:11:08;8.07;;;2.35;;
66521;SDS011;53349;53.538;8.584;2023-03-14T02:13:33;11.50;;;2.50;;
66521;SDS011;53349;53.538;8.584;2023-03-14T02:15:59;11.50;;;2.40;;
66521;SDS011;53349;53.538;8.584;2023-03-14T02:18:24;10.15;;;2.53;;
66521;SDS011;53349;53.538;8.584;2023-03-14T02:23:40;10.90;;;2.72;;
66521;SDS011;53349;53.538;8.584;2023-03-14T02:26:11;10.20;;;2.58;;
66521;SDS011;53349;53.538;8.584;2023-03-14T02:28:45;9.52;;;2.40;;
66521;SDS011;53349;53.538;8.584;2023-03-14T02:31:14;9.57;;;2.40;;
66521;SDS011;53349;53.538;8.584;2023-03-14T02:33:43;9.57;;;3.03;;
66521;SDS011;53349;53.538;8.584;2023-03-14T02:36:10;10.88;;;2.80;;
66521;SDS011;53349;53.538;8.584;2023-03-14T02:38:44;8.10;;;2.45;;
66521;SDS011;53349;53.538;8.584;2023-03-14T02:41:23;7.43;;;2.03;;
66521;SDS011;53349;53.538;8.584;2023-03-14T02:43:49;7.35;;;1.90;;
66521;SDS011;53349;53.538;8.584;2023-03-14T02:46:16;10.90;;;2.37;;
66521;SDS011;53349;53.538;8.584;2023-03-14T02:48:51;9.32;;;2.35;;
66521;SDS011;53349;53.538;8.584;2023-03-14T02:51:18;10.98;;;2.28;;
66521;SDS011;53349;53.538;8.584;2023-03-14T02:53:45;9.88;;;2.60;;
66521;SDS011;53349;53.538;8.584;2023-03-14T02:56:10;8.05;;;2.75;;
66521;SDS011;53349;53.538;8.584;2023-03-14T02:58:37;9.50;;;2.50;;
66521;SDS011;53349;53.538;8.584;2023-03-14T03:01:03;6.40;;;1.92;;
66521;SDS011;53349;53.538;8.584;2023-03-14T03:03:29;8.50;;;2.60;;
66521;SDS011;53349;53.538;8.584;2023-03-14T03:05:55;9.53;;;2.00;;
66521;SDS011;53349;53.538;8.584;2023-03-14T03:08:22;6.63;;;1.83;;
66521;SDS011;53349;53.538;8.584;2023-03-14T03:10:49;9.65;;;1.73;;
66521;SDS011;53349;53.538;8.584;2023-03-14T03:13:15;10.30;;;1.48;;
66521;SDS011;53349;53.538;8.584;2023-03-14T03:15:41;7.30;;;1.00;;
66521;SDS011;53349;53.538;8.584;2023-03-14T03:18:08;7.47;;;0.98;;
66521;SDS011;53349;53.538;8.584;2023-03-14T03:20:38;12.67;;;1.03;;
66521;SDS011;53349;53.538;8.584;2023-03-14T03:23:03;5.77;;;1.00;;
66521;SDS011;53349;53.538;8.584;2023-03-14T03:25:29;9.38;;;0.90;;
66521;SDS011;53349;53.538;8.584;2023-03-14T03:27:57;4.65;;;1.00;;
66521;SDS011;53349;53.538;8.584;2023-03-14T03:30:23;7.00;;;1.35;;
66521;SDS011;53349;53.538;8.584;2023-03-14T03:32:49;7.93;;;1.70;;
66521;SDS011;53349;53.538;8.584;2023-03-14T03:35:14;8.30;;;1.60;;
66521;SDS011;53349;53.538;8.584;2023-03-14T03:37:40;11.18;;;1.55;;
66521;SDS011;53349;53.538;8.584;2023-03-14T03:40:05;9.20;;;1.50;;
66521;SDS011;53349;53.538;8.584;2023-03-14T03:42:32;10.32;;;1.65;;
66521;SDS011;53349;53.538;8.584;2023-03-14T03:44:59;7.95;;;1.45;;
66521;SDS011;53349;53.538;8.584;2023-03-14T03:47:27;7.38;;;1.95;;
66521;SDS011;53349;53.538;8.584;2023-03-14T03:49:52;7.57;;;1.80;;
66521;SDS011;53349;53.538;8.584;2023-03-14T03:52:18;9.20;;;1.70;;
66521;SDS011;53349;53.538;8.584;2023-03-14T03:54:43;10.73;;;1.90;;
66521;SDS011;53349;53.538;8.584;2023-03-14T03:57:09;10.83;;;2.00;;
66521;SDS011;53349;53.538;8.584;2023-03-14T03:59:34;9.80;;;2.00;;
66521;SDS011;53349;53.538;8.584;2023-03-14T04:01:59;9.23;;;2.00;;
66521;SDS011;53349;53.538;8.584;2023-03-14T04:04:25;9.90;;;1.90;;
66521;SDS011;53349;53.538;8.584;2023-03-14T04:06:50;8.93;;;1.70;;
66521;SDS011;53349;53.538;8.584;2023-03-14T04:09:15;14.93;;;2.43;;
66521;SDS011;53349;53.538;8.584;2023-03-14T04:11:41;9.03;;;1.70;;
66521;SDS011;53349;53.538;8.584;2023-03-14T04:14:06;7.07;;;1.73;;
66521;SDS011;53349;53.538;8.584;2023-03-14T04:16:32;11.97;;;2.10;;
66521;SDS011;53349;53.538;8.584;2023-03-14T04:18:57;12.25;;;2.75;;
66521;SDS011;53349;53.538;8.584;2023-03-14T04:21:23;10.40;;;2.23;;
66521;SDS011;53349;53.538;8.584;2023-03-14T04:23:48;14.17;;;3.07;;
66521;SDS011;53349;53.538;8.584;2023-03-14T04:26:14;10.73;;;2.53;;
66521;SDS011;53349;53.538;8.584;2023-03-14T04:28:41;8.90;;;2.45;;
66521;SDS011;53349;53.538;8.584;2023-03-14T04:31:09;11.30;;;2.45;;
66521;SDS011;53349;53.538;8.584;2023-03-14T04:33:37;7.53;;;2.60;;
66521;SDS011;53349;53.538;8.584;2023-03-14T04:36:03;9.73;;;2.80;;
66521;SDS011;53349;53.538;8.584;2023-03-14T04:38:30;11.65;;;2.58;;
66521;SDS011;53349;53.538;8.584;2023-03-14T04:40:56;8.77;;;2.28;;
66521;SDS011;53349;53.538;8.584;2023-03-14T04:43:21;11.33;;;2.40;;
66521;SDS011;53349;53.538;8.584;2023-03-14T04:45:47;9.50;;;2.47;;
66521;SDS011;53349;53.538;8.584;2023-03-14T04:48:12;8.70;;;2.40;;
66521;SDS011;53349;53.538;8.584;2023-03-14T04:50:38;10.00;;;2.42;;
66521;SDS011;53349;53.538;8.584;2023-03-14T04:53:04;8.93;;;2.33;;
66521;SDS011;53349;53.538;8.584;2023-03-14T04:55:31;7.60;;;2.30;;
66521;SDS011;53349;53.538;8.584;2023-03-14T04:57:58;9.70;;;2.22;;
66521;SDS011;53349;53.538;8.584;2023-03-14T05:00:23;5.13;;;1.73;;
66521;SDS011;53349;53.538;8.584;2023-03-14T05:02:49;6.53;;;2.08;;
66521;SDS011;53349;53.538;8.584;2023-03-14T05:05:15;9.30;;;2.13;;
66521;SDS011;53349;53.538;8.584;2023-03-14T05:07:40;7.25;;;2.13;;
66521;SDS011;53349;53.538;8.584;2023-03-14T05:10:06;6.23;;;2.00;;
66521;SDS011;53349;53.538;8.584;2023-03-14T05:12:31;9.13;;;2.37;;
66521;SDS011;53349;53.538;8.584;2023-03-14T05:14:57;10.07;;;2.13;;
66521;SDS011;53349;53.538;8.584;2023-03-14T05:17:22;6.47;;;1.83;;
66521;SDS011;53349;53.538;8.584;2023-03-14T05:19:47;5.70;;;2.10;;
66521;SDS011;53349;53.538;8.584;2023-03-14T05:22:13;6.40;;;1.97;;
66521;SDS011;53349;53.538;8.584;2023-03-14T05:24:38;7.23;;;2.23;;
66521;SDS011;53349;53.538;8.584;2023-03-14T05:27:04;5.87;;;1.90;;
66521;SDS011;53349;53.538;8.584;2023-03-14T05:29:29;7.25;;;1.88;;
66521;SDS011;53349;53.538;8.584;2023-03-14T05:31:55;4.97;;;1.97;;
66521;SDS011;53349;53.538;8.584;2023-03-14T05:34:20;8.97;;;2.03;;
66521;SDS011;53349;53.538;8.584;2023-03-14T05:36:47;5.13;;;1.80;;
66521;SDS011;53349;53.538;8.584;2023-03-14T05:39:15;6.18;;;1.88;;
66521;SDS011;53349;53.538;8.584;2023-03-14T05:41:40;7.83;;;2.27;;
66521;SDS011;53349;53.538;8.584;2023-03-14T05:44:06;4.60;;;1.73;;
66521;SDS011;53349;53.538;8.584;2023-03-14T05:46:31;5.83;;;1.87;;
66521;SDS011;53349;53.538;8.584;2023-03-14T05:48:57;6.47;;;1.77;;
66521;SDS011;53349;53.538;8.584;2023-03-14T05:51:23;7.45;;;2.00;;
66521;SDS011;53349;53.538;8.584;2023-03-14T05:53:48;5.53;;;1.73;;
66521;SDS011;53349;53.538;8.584;2023-03-14T05:56:14;4.57;;;1.88;;
66521;SDS011;53349;53.538;8.584;2023-03-14T05:58:40;5.72;;;2.28;;
66521;SDS011;53349;53.538;8.584;2023-03-14T06:01:07;8.77;;;2.30;;
66521;SDS011;53349;53.538;8.584;2023-03-14T06:03:34;6.60;;;1.80;;
66521;SDS011;53349;53.538;8.584;2023-03-14T06:05:59;10.32;;;2.03;;
66521;SDS011;53349;53.538;8.584;2023-03-14T06:08:26;7.40;;;2.07;;
66521;SDS011;53349;53.538;8.584;2023-03-14T06:10:53;11.18;;;2.30;;
66521;SDS011;53349;53.538;8.584;2023-03-14T06:13:18;7.27;;;2.20;;
66521;SDS011;53349;53.538;8.584;2023-03-14T06:15:46;6.70;;;2.20;;
66521;SDS011;53349;53.538;8.584;2023-03-14T06:18:12;6.93;;;1.83;;
66521;SDS011;53349;53.538;8.584;2023-03-14T06:20:39;6.88;;;1.80;;
66521;SDS011;53349;53.538;8.584;2023-03-14T06:23:06;7.80;;;2.30;;
66521;SDS011;53349;53.538;8.584;2023-03-14T06:25:36;5.72;;;2.03;;
66521;SDS011;53349;53.538;8.584;2023-03-14T06:28:02;8.40;;;2.28;;
66521;SDS011;53349;53.538;8.584;2023-03-14T06:30:28;6.28;;;1.73;;
66521;SDS011;53349;53.538;8.584;2023-03-14T06:32:53;9.43;;;2.00;;
66521;SDS011;53349;53.538;8.584;2023-03-14T06:35:19;9.27;;;1.92;;
66521;SDS011;53349;53.538;8.584;2023-03-14T06:37:49;7.32;;;2.03;;
66521;SDS011;53349;53.538;8.584;2023-03-14T06:40:15;7.97;;;2.10;;
66521;SDS011;53349;53.538;8.584;2023-03-14T06:42:43;5.47;;;1.90;;
66521;SDS011;53349;53.538;8.584;2023-03-14T06:45:10;11.68;;;2.38;;
66521;SDS011;53349;53.538;8.584;2023-03-14T06:47:35;5.32;;;1.80;;
66521;SDS011;53349;53.538;8.584;2023-03-14T06:50:02;6.18;;;1.85;;
66521;SDS011;53349;53.538;8.584;2023-03-14T06:52:27;5.53;;;1.77;;
66521;SDS011;53349;53.538;8.584;2023-03-14T06:54:56;6.47;;;2.08;;
66521;SDS011;53349;53.538;8.584;2023-03-14T06:57:21;6.50;;;1.90;;
66521;SDS011;53349;53.538;8.584;2023-03-14T06:59:51;5.38;;;1.75;;
66521;SDS011;53349;53.538;8.584;2023-03-14T07:02:16;6.43;;;2.23;;
66521;SDS011;53349;53.538;8.584;2023-03-14T07:04:42;4.10;;;1.73;;
66521;SDS011;53349;53.538;8.584;2023-03-14T07:07:07;4.57;;;1.77;;
66521;SDS011;53349;53.538;8.584;2023-03-14T07:09:33;10.05;;;1.98;;
66521;SDS011;53349;53.538;8.584;2023-03-14T07:12:00;7.72;;;2.08;;
66521;SDS011;53349;53.538;8.584;2023-03-14T07:14:26;8.75;;;2.33;;
66521;SDS011;53349;53.538;8.584;2023-03-14T07:16:52;8.43;;;2.20;;
66521;SDS011;53349;53.538;8.584;2023-03-14T07:19:17;6.20;;;1.90;;
66521;SDS011;53349;53.538;8.584;2023-03-14T07:21:43;10.67;;;2.47;;
66521;SDS011;53349;53.538;8.584;2023-03-14T07:24:08;8.40;;;2.37;;
66521;SDS011;53349;53.538;8.584;2023-03-14T07:26:33;8.43;;;2.28;;
66521;SDS011;53349;53.538;8.584;2023-03-14T07:29:00;6.07;;;2.03;;
66521;SDS011;53349;53.538;8.584;2023-03-14T07:31:25;8.48;;;2.30;;
66521;SDS011;53349;53.538;8.584;2023-03-14T07:33:51;8.53;;;2.33;;
66521;SDS011;53349;53.538;8.584;2023-03-14T07:36:16;6.27;;;2.33;;
66521;SDS011;53349;53.538;8.584;2023-03-14T07:38:42;7.65;;;2.20;;
66521;SDS011;53349;53.538;8.584;2023-03-14T07:41:08;9.87;;;2.20;;
66521;SDS011;53349;53.538;8.584;2023-03-14T07:43:34;10.23;;;1.97;;
66521;SDS011;53349;53.538;8.584;2023-03-14T07:46:01;5.40;;;1.85;;
66521;SDS011;53349;53.538;8.584;2023-03-14T07:48:27;8.00;;;1.80;;
66521;SDS011;53349;53.538;8.584;2023-03-14T07:50:54;7.47;;;2.00;;
66521;SDS011;53349;53.538;8.584;2023-03-14T07:53:20;8.73;;;2.13;;
66521;SDS011;53349;53.538;8.584;2023-03-14T07:55:48;9.43;;;2.00;;
66521;SDS011;53349;53.538;8.584;2023-03-14T07:58:14;6.53;;;1.80;;
66521;SDS011;53349;53.538;8.584;2023-03-14T08:00:40;6.47;;;1.90;;
66521;SDS011;53349;53.538;8.584;2023-03-14T08:03:06;5.45;;;1.90;;
66521;SDS011;53349;53.538;8.584;2023-03-14T08:05:36;6.68;;;1.65;;
66521;SDS011;53349;53.538;8.584;2023-03-14T08:08:05;7.13;;;1.63;;
66521;SDS011;53349;53.538;8.584;2023-03-14T08:10:32;7.65;;;1.60;;
66521;SDS011;53349;53.538;8.584;2023-03-14T08:13:01;7.65;;;1.75;;
66521;SDS011;53349;53.538;8.584;2023-03-14T08:15:27;7.72;;;2.00;;
66521;SDS011;53349;53.538;8.584;2023-03-14T08:17:56;8.05;;;1.70;;
66521;SDS011;53349;53.538;8.584;2023-03-14T08:20:23;5.50;;;1.50;;
66521;SDS011;53349;53.538;8.584;2023-03-14T08:22:50;13.43;;;1.38;;
66521;SDS011;53349;53.538;8.584;2023-03-14T08:25:16;4.93;;;1.30;;
66521;SDS011;53349;53.538;8.584;2023-03-14T08:27:41;4.00;;;0.73;;
66521;SDS011;53349;53.538;8.584;2023-03-14T08:30:09;4.85;;;0.88;;
66521;SDS011;53349;53.538;8.584;2023-03-14T08:32:36;8.10;;;0.70;;
66521;SDS011;53349;53.538;8.584;2023-03-14T08:35:02;7.95;;;0.80;;
66521;SDS011;53349;53.538;8.584;2023-03-14T08:37:30;4.88;;;0.68;;
66521;SDS011;53349;53.538;8.584;2023-03-14T08:39:56;5.15;;;1.00;;
66521;SDS011;53349;53.538;8.584;2023-03-14T08:42:22;6.03;;;1.27;;
66521;SDS011;53349;53.538;8.584;2023-03-14T08:44:47;7.30;;;1.10;;
66521;SDS011;53349;53.538;8.584;2023-03-14T08:47:14;5.90;;;0.70;;
66521;SDS011;53349;53.538;8.584;2023-03-14T08:49:39;4.63;;;0.90;;
66521;SDS011;53349;53.538;8.584;2023-03-14T08:52:04;6.32;;;0.93;;
66521;SDS011;53349;53.538;8.584;2023-03-14T08:54:30;5.60;;;0.77;;
66521;SDS011;53349;53.538;8.584;2023-03-14T08:56:56;2.93;;;0.37;;
66521;SDS011;53349;53.538;8.584;2023-03-14T08:59:23;5.13;;;0.60;;
66521;SDS011;53349;53.538;8.584;2023-03-14T09:01:48;1.13;;;0.25;;
66521;SDS011;53349;53.538;8.584;2023-03-14T09:04:14;1.60;;;0.33;;
66521;SDS011;53349;53.538;8.584;2023-03-14T09:06:40;4.30;;;0.32;;
66521;SDS011;53349;53.538;8.584;2023-03-14T09:09:11;2.50;;;0.30;;
66521;SDS011;53349;53.538;8.584;2023-03-14T09:11:37;1.95;;;0.22;;
66521;SDS011;53349;53.538;8.584;2023-03-14T09:14:02;2.70;;;0.40;;
66521;SDS011;53349;53.538;8.584;2023-03-14T09:16:28;3.47;;;0.50;;
66521;SDS011;53349;53.538;8.584;2023-03-14T09:18:54;1.15;;;0.20;;
66521;SDS011;53349;53.538;8.584;2023-03-14T09:21:20;1.67;;;0.30;;
66521;SDS011;53349;53.538;8.584;2023-03-14T09:23:46;2.35;;;0.30;;
66521;SDS011;53349;53.538;8.584;2023-03-14T09:26:13;1.13;;;0.30;;
66521;SDS011;53349;53.538;8.584;2023-03-14T09:28:38;1.17;;;0.20;;
66521;SDS011;53349;53.538;8.584;2023-03-14T09:31:07;2.33;;;0.40;;
66521;SDS011;53349;53.538;8.584;2023-03-14T09:33:36;2.45;;;0.30;;
66521;SDS011;53349;53.538;8.584;2023-03-14T09:36:02;2.28;;;0.30;;
66521;SDS011;53349;53.538;8.584;2023-03-14T09:38:27;2.50;;;0.30;;
66521;SDS011;53349;53.538;8.584;2023-03-14T09:40:53;1.50;;;0.32;;
66521;SDS011;53349;53.538;8.584;2023-03-14T09:43:20;4.18;;;0.47;;
66521;SDS011;53349;53.538;8.584;2023-03-14T09:45:47;2.20;;;0.40;;
66521;SDS011;53349;53.538;8.584;2023-03-14T09:48:16;3.60;;;0.32;;
66521;SDS011;53349;53.538;8.584;2023-03-14T09:50:50;2.88;;;0.40;;
66521;SDS011;53349;53.538;8.584;2023-03-14T09:53:19;4.40;;;0.50;;
66521;SDS011;53349;53.538;8.584;2023-03-14T09:55:49;4.57;;;0.90;;
66521;SDS011;53349;53.538;8.584;2023-03-14T09:58:18;2.80;;;0.40;;
66521;SDS011;53349;53.538;8.584;2023-03-14T10:00:45;4.95;;;0.50;;
66521;SDS011;53349;53.538;8.584;2023-03-14T10:05:46;3.58;;;0.38;;
66521;SDS011;53349;53.538;8.584;2023-03-14T10:08:12;3.95;;;0.50;;
66521;SDS011;53349;53.538;8.584;2023-03-14T10:10:40;2.33;;;0.30;;
66521;SDS011;53349;53.538;8.584;2023-03-14T10:15:41;6.68;;;0.65;;
66521;SDS011;53349;53.538;8.584;2023-03-14T10:18:12;2.90;;;0.47;;
66521;SDS011;53349;53.538;8.584;2023-03-14T10:20:40;4.03;;;0.50;;
66521;SDS011;53349;53.538;8.584;2023-03-14T10:25:39;2.13;;;0.60;;
66521;SDS011;53349;53.538;8.584;2023-03-14T10:28:26;6.20;;;0.70;;
66521;SDS011;53349;53.538;8.584;2023-03-14T10:30:53;5.43;;;0.63;;
66521;SDS011;53349;53.538;8.584;2023-03-14T10:33:21;4.93;;;0.65;;
66521;SDS011;53349;53.538;8.584;2023-03-14T10:35:56;5.00;;;0.70;;
66521;SDS011;53349;53.538;8.584;2023-03-14T10:38:33;4.15;;;0.60;;
66521;SDS011;53349;53.538;8.584;2023-03-14T10:41:01;4.35;;;0.65;;
66521;SDS011;53349;53.538;8.584;2023-03-14T10:43:31;1.88;;;0.40;;
66521;SDS011;53349;53.538;8.584;2023-03-14T10:46:17;6.35;;;0.90;;
66521;SDS011;53349;53.538;8.584;2023-03-14T10:48:47;3.93;;;0.50;;
66521;SDS011;53349;53.538;8.584;2023-03-14T10:51:48;4.30;;;0.55;;
66521;SDS011;53349;53.538;8.584;2023-03-14T10:54:15;4.47;;;0.50;;
66521;SDS011;53349;53.538;8.584;2023-03-14T10:57:01;5.80;;;0.73;;
66521;SDS011;53349;53.538;8.584;2023-03-14T10:59:33;9.52;;;1.20;;
66521;SDS011;53349;53.538;8.584;2023-03-14T11:07:42;6.88;;;1.13;;
66521;SDS011;53349;53.538;8.584;2023-03-14T11:21:26;5.57;;;1.02;;
66521;SDS011;53349;53.538;8.584;2023-03-14T11:29:40;7.83;;;1.00;;
66521;SDS011;53349;53.538;8.584;2023-03-14T11:32:10;8.93;;;1.23;;
66521;SDS011;53349;53.538;8.584;2023-03-14T11:34:48;8.65;;;1.58;;
66521;SDS011;53349;53.538;8.584;2023-03-14T11:40:02;6.60;;;1.17;;
66521;SDS011;53349;53.538;8.584;2023-03-14T11:42:35;7.40;;;1.20;;
66521;SDS011;53349;53.538;8.584;2023-03-14T11:45:02;11.15;;;1.63;;
66521;SDS011;53349;53.538;8.584;2023-03-14T11:47:32;7.55;;;1.48;;
66521;SDS011;53349;53.538;8.584;2023-03-14T11:50:16;8.10;;;1.30;;
66521;SDS011;53349;53.538;8.584;2023-03-14T11:55:31;10.37;;;1.30;;
66521;SDS011;53349;53.538;8.584;2023-03-14T11:58:23;10.18;;;1.20;;
66521;SDS011;53349;53.538;8.584;2023-03-14T12:00:54;9.27;;;1.58;;
66521;SDS011;53349;53.538;8.584;2023-03-14T12:03:41;8.85;;;1.40;;
66521;SDS011;53349;53.538;8.584;2023-03-14T12:09:14;8.20;;;1.10;;
66521;SDS011;53349;53.538;8.584;2023-03-14T12:11:48;7.68;;;1.17;;
66521;SDS011;53349;53.538;8.584;2023-03-14T12:14:30;10.65;;;1.15;;
66521;SDS011;53349;53.538;8.584;2023-03-14T12:17:04;7.35;;;1.25;;
66521;SDS011;53349;53.538;8.584;2023-03-14T12:19:31;6.10;;;0.93;;
66521;SDS011;53349;53.538;8.584;2023-03-14T12:24:33;7.40;;;0.82;;
66521;SDS011;53349;53.538;8.584;2023-03-14T12:27:02;8.52;;;1.17;;
66521;SDS011;53349;53.538;8.584;2023-03-14T12:29:29;5.47;;;1.10;;
66521;SDS011;53349;53.538;8.584;2023-03-14T12:34:49;4.97;;;0.80;;
66521;SDS011;53349;53.538;8.584;2023-03-14T12:37:20;6.15;;;1.00;;
66521;SDS011;53349;53.538;8.584;2023-03-14T12:40:03;7.95;;;0.82;;
66521;SDS011;53349;53.538;8.584;2023-03-14T12:45:27;7.07;;;1.30;;
66521;SDS011;53349;53.538;8.584;2023-03-14T12:50:32;4.97;;;0.93;;
66521;SDS011;53349;53.538;8.584;2023-03-14T12:53:06;7.63;;;1.13;;
66521;SDS011;53349;53.538;8.584;2023-03-14T12:56:02;11.35;;;0.98;;
66521;SDS011;53349;53.538;8.584;2023-03-14T13:01:14;6.10;;;0.80;;
66521;SDS011;53349;53.538;8.584;2023-03-14T13:11:56;7.00;;;0.85;;
66521;SDS011;53349;53.538;8.584;2023-03-14T13:14:30;7.90;;;1.17;;
66521;SDS011;53349;53.538;8.584;2023-03-14T13:16:58;10.60;;;1.45;;
66521;SDS011;53349;53.538;8.584;2023-03-14T13:19:28;8.95;;;1.25;;
66521;SDS011;53349;53.538;8.584;2023-03-14T13:21:56;6.93;;;0.90;;
66521;SDS011;53349;53.538;8.584;2023-03-14T13:24:26;5.60;;;0.98;;
66521;SDS011;53349;53.538;8.584;2023-03-14T13:26:55;7.25;;;1.02;;
66521;SDS011;53349;53.538;8.584;2023-03-14T13:29:22;8.00;;;0.97;;
66521;SDS011;53349;53.538;8.584;2023-03-14T13:31:53;6.95;;;0.90;;
66521;SDS011;53349;53.538;8.584;2023-03-14T13:34:20;4.57;;;0.77;;
66521;SDS011;53349;53.538;8.584;2023-03-14T13:36:46;5.97;;;0.80;;
66521;SDS011;53349;53.538;8.584;2023-03-14T13:39:16;7.00;;;0.80;;
66521;SDS011;53349;53.538;8.584;2023-03-14T13:41:43;6.72;;;0.85;;
66521;SDS011;53349;53.538;8.584;2023-03-14T13:44:14;6.80;;;0.80;;
66521;SDS011;53349;53.538;8.584;2023-03-14T13:46:43;7.53;;;0.98;;
66521;SDS011;53349;53.538;8.584;2023-03-14T13:49:10;6.78;;;0.90;;
66521;SDS011;53349;53.538;8.584;2023-03-14T13:51:43;7.60;;;0.82;;
66521;SDS011;53349;53.538;8.584;2023-03-14T13:54:15;4.40;;;0.80;;
66521;SDS011;53349;53.538;8.584;2023-03-14T13:56:45;7.07;;;1.05;;
66521;SDS011;53349;53.538;8.584;2023-03-14T13:59:21;5.15;;;0.73;;
66521;SDS011;53349;53.538;8.584;2023-03-14T14:01:47;8.10;;;1.00;;
66521;SDS011;53349;53.538;8.584;2023-03-14T14:04:15;5.63;;;0.80;;
66521;SDS011;53349;53.538;8.584;2023-03-14T14:06:47;6.78;;;1.25;;
66521;SDS011;53349;53.538;8.584;2023-03-14T14:09:26;7.47;;;0.80;;
66521;SDS011;53349;53.538;8.584;2023-03-14T14:11:58;6.07;;;0.88;;
66521;SDS011;53349;53.538;8.584;2023-03-14T14:14:35;5.57;;;0.85;;
66521;SDS011;53349;53.538;8.584;2023-03-14T14:17:10;5.78;;;1.20;;
66521;SDS011;53349;53.538;8.584;2023-03-14T14:19:39;5.55;;;0.88;;
66521;SDS011;53349;53.538;8.584;2023-03-14T14:22:08;6.95;;;0.82;;
66521;SDS011;53349;53.538;8.584;2023-03-14T14:24:34;6.18;;;0.77;;
66521;SDS011;53349;53.538;8.584;2023-03-14T14:27:07;7.70;;;1.10;;
66521;SDS011;53349;53.538;8.584;2023-03-14T14:29:41;5.55;;;0.85;;
66521;SDS011;53349;53.538;8.584;2023-03-14T14:34:42;5.50;;;1.27;;
66521;SDS011;53349;53.538;8.584;2023-03-14T14:37:28;8.90;;;1.23;;
66521;SDS011;53349;53.538;8.584;2023-03-14T14:39:57;7.85;;;1.08;;
66521;SDS011;53349;53.538;8.584;2023-03-14T14:42:27;4.75;;;0.50;;
66521;SDS011;53349;53.538;8.584;2023-03-14T14:44:55;6.05;;;0.93;;
66521;SDS011;53349;53.538;8.584;2023-03-14T14:47:24;4.80;;;0.70;;
66521;SDS011;53349;53.538;8.584;2023-03-14T14:49:52;10.00;;;1.45;;
66521;SDS011;53349;53.538;8.584;2023-03-14T14:52:20;8.43;;;1.38;;
66521;SDS011;53349;53.538;8.584;2023-03-14T14:55:12;6.50;;;1.15;;
66521;SDS011;53349;53.538;8.584;2023-03-14T14:57:53;6.72;;;1.00;;
66521;SDS011;53349;53.538;8.584;2023-03-14T15:00:21;5.88;;;0.90;;
66521;SDS011;53349;53.538;8.584;2023-03-14T15:02:52;8.30;;;0.88;;
66521;SDS011;53349;53.538;8.584;2023-03-14T15:05:22;7.10;;;1.00;;
66521;SDS011;53349;53.538;8.584;2023-03-14T15:07:49;6.13;;;0.65;;
66521;SDS011;53349;53.538;8.584;2023-03-14T15:10:19;7.05;;;0.98;;
66521;SDS011;53349;53.538;8.584;2023-03-14T15:12:45;5.78;;;0.82;;
66521;SDS011;53349;53.538;8.584;2023-03-14T15:15:11;6.47;;;0.80;;
66521;SDS011;53349;53.538;8.584;2023-03-14T15:17:37;6.97;;;0.68;;
66521;SDS011;53349;53.538;8.584;2023-03-14T15:20:03;7.10;;;0.93;;
66521;SDS011;53349;53.538;8.584;2023-03-14T15:22:30;5.20;;;0.82;;
66521;SDS011;53349;53.538;8.584;2023-03-14T15:24:55;7.53;;;0.90;;
66521;SDS011;53349;53.538;8.584;2023-03-14T15:27:21;5.73;;;0.87;;
66521;SDS011;53349;53.538;8.584;2023-03-14T15:29:46;5.45;;;1.10;;
66521;SDS011;53349;53.538;8.584;2023-03-14T15:32:13;8.03;;;1.07;;
66521;SDS011;53349;53.538;8.584;2023-03-14T15:34:39;7.53;;;0.77;;
66521;SDS011;53349;53.538;8.584;2023-03-14T15:37:08;9.13;;;1.00;;
66521;SDS011;53349;53.538;8.584;2023-03-14T15:39:36;8.63;;;1.17;;
66521;SDS011;53349;53.538;8.584;2023-03-14T15:42:02;7.10;;;1.13;;
66521;SDS011;53349;53.538;8.584;2023-03-14T15:44:27;12.03;;;1.30;;
66521;SDS011;53349;53.538;8.584;2023-03-14T15:46:53;8.57;;;1.33;;
66521;SDS011;53349;53.538;8.584;2023-03-14T15:49:19;4.60;;;1.05;;
66521;SDS011;53349;53.538;8.584;2023-03-14T15:51:45;8.13;;;1.10;;
66521;SDS011;53349;53.538;8.584;2023-03-14T15:54:11;6.77;;;1.00;;
66521;SDS011;53349;53.538;8.584;2023-03-14T15:56:37;6.95;;;0.70;;
66521;SDS011;53349;53.538;8.584;2023-03-14T15:59:04;5.22;;;0.70;;
66521;SDS011;53349;53.538;8.584;2023-03-14T16:01:29;8.53;;;0.90;;